CEC 2014 Haywood NORAM/Buff-Qualifier & Prologue | Zone4.ca



CEC 2014 Haywood NORAM/Buff-Qualifier & Prologue

Date: Jan 31, 2014
StartList
Location/Lieu: Nakkertok South Nordic Centre
Host Clubs Hôtes: Gatineau-Ottawa XC Clubs

Jury
TD / DT:  Shawn Sinclair 
ATD / DTA  Renée Thibeault 
Dir. Comp. Chief  Jim McCarthy 
CCC Dir. SFC  Dave Dyer 
Heure/Time: 10:00 am
Wind/Vent:  10km/hr Gusty Wind/Vent Dir: SW
Air Temp: -3 Snow/Neige T: -4
Weather/Météo: Sun/Cloud Snow/Neige: Groomed Powder

Open (F) 1.4 km. Free  Sprint Qualification  
Bib Name CCC# CPL SFQ# FIS# DOB U23 Div Club Team Start Time
90 Alysson Marshall 13482 94.71   3105084 1988 False BC Larch Hills Nordic AWCA-NST 9:33:00.00
91 Andrea Dupont 5573 94.54   3105105 1980 False AB Rocky Mountain Racers RMR 9:33:15.00
92 Erin Tribe 13652 91.32   3105145 1989 False ON Team Hardwood NDC TBay 9:33:30.00
93 Marlis Kromm 14211 90.57   3105093 1990 False AB Foothills Nordic AWCA 9:33:45.00
94 Jennifer Jackson 21582 89.04   3105217 1995 True ON Team Hardwood NDC TBay 9:34:00.00
95 Zoe Roy 13631 88.8   3105090 1987 False AB Foothills Nordic Team NINJA! 9:34:15.00
96 Maja Zimmermann 14589 88.73   3105176 1990 False AB Rocky Mountain Racers RMR 9:34:30.00
97 Alannah Maclean 19646 86.87   3105169 1993 True ON Walden Nordic NDC TBay 9:34:45.00
98 Ember Large 23731 85.88   3105185 1995 False AB Edmonton Nordic AST 9:35:00.00
99 Kajsa Heyes 14562 85.84   3105181 1992 True BC Hollyburn XC BCST/Nippissing U 9:35:15.00
100 Gabrielle Lemire 21444 85.58 15098 3105177 1994 False QC C.N. Skibec QCST/Limoilou 9:35:30.00
101 Lauren Brookes 25727 85.53   3105229 1991 True AB Rocky Mountain Racers   9:35:45.00
102 Kendra Murray 22984 85.48   3105219 1993 True YT Whitehorse XC Carleton U 9:36:00.00
103 Andrée-Anne Théberge 23610 83.55 13088 3105205 1995 False QC C.N. Skibec   9:36:15.00
104 Sheila Kealey 3485 83.39   3105048 1964 False ON XC Ottawa XC Ottawa 9:36:30.00
105 Annah Hanthorn 14632 82.18   3105228 1995 False YT Whitehorse XC YTST 9:36:45.00
106 Emilie Stewart-Jones 23773 82.1 3497 3105198 1995 False QC Nakkertok QCST 9:37:00.00
107 Sadie White 23767 82.08   3105182 1996 False ON Big Thunder Nordic OST 9:37:15.00
108 Shelby Dickey 21473 81.78     1994 True ON Highland Trailblazers OST/Nippissing U 9:37:30.00
109 Mia Serratore 23769 81.76   3105174 1996 False ON Big Thunder Nordic OST 9:37:45.00
110 Candace Ball 18902 81.1     1990 False ON Walden Nordic Laurentian U 9:38:00.00
111 Ingrid Hagberg 18900 80.35   3105164 1991 True ON XC Ottawa XC Ottawa 9:38:15.00
112 Alexandra Slobodian 23717 79.42   3105225 1995 False ON Nakkertok OST/Carleton U 9:38:30.00
113 Jessica Demers 14607 79.07     1995 True ON Porcupine Ski Runners OST/Nippissing U 9:38:45.00
114 Liza Rozina 28163 78.68     1989 False ON XC Ottawa Carleton U 9:39:00.00
115 Bryana van Leeuwen 25586 78.48     1994 True ON Big Thunder Nordic OST 9:39:15.00
116 Moira Haggarty 14538 78.43     1993 True ON Big Thunder Nordic Lakehead U 9:39:30.00
117 Holly Brown 28645 77.08   3105227 1995 False ON Nakkertok   9:39:45.00
118 Holly Jones 27359 76.85     1992 True ON Arrowhead Nordic XC Ottawa/Carleton U 9:40:00.00
119 Isabelle Maclean 20510 76.83     1995 False ON Walden Nordic Carleton U 9:40:15.00
120 Kaitlyn McMahon 19587 76.03   3105142 1990 False QC XC Ottawa XC Ottawa 9:40:30.00
121 Elise Huet 25790 75.92     1995 False ON Highland Trailblazers Guelph U 9:40:45.00
122 Betsy Mawdsley 27082 75.05     1988 False AB Rocky Mountain Racers RMR 9:41:00.00
123 Ilona Gyapay 21565 74.36     1992 True AB Camrose RMR 9:41:15.00
124 Rosalie Vézina 23597 74.16 2046   1995 False QC C.N. Skibec   9:41:30.00
125 Zoë Williams 27366 73.61 16615   1997 False QC Nakkertok   9:41:45.00
126 Adrienne Hynes 24509 73.11     1995 True YT Whitehorse XC Carleton U 9:42:00.00
127 Lynsey Bialkowski 23603 70.95     1991 True ON North Bay Nordic Nipissing U 9:42:15.00
128 Alexe Tremblay 21032 69.93 876   1994 False QC C.N. Skibec   9:42:30.00
129 Madeleine Nolan 30890 64.28     1995 True ON Laurentian Nordic Laurentian U 9:42:45.00
130 Maya Boivin 26905 62.16     1995 False MB Kenora Nordic MBST 9:43:00.00
131 Jessica Metuzals 31837 0     1991 False ON Nakkertok Queen's U 9:43:15.00
132 Katie Prufer 23726 0     1992 True ON Mono Nordic Queen's U 9:43:30.00
133 Lauren Aarts         1995 True ON North Bay Nordic Nipissing U 9:43:45.00
134 Gemma Dingwall         1994 False ON Carleton U Carleton U 9:44:00.00
135 Jennifer Hull         1994 True ON Laurentian Nordic Laurentian 9:44:15.00
136 Sarah Murray         1988 False ON Whitehorse XC Carleton U 9:44:30.00
137 Anna Geiger-Whitlock         1987 False ON XC Ottawa   9:44:45.00
138 Heather Smith         1989 False ON Laurentian Nordic Laurentian U 9:45:00.00


Results are posted through an automated system by licenced clubs. For inquires about result corrections please contact the race organizer.

Copyright 2022 - Zone4 Systems zone4.ca       Privacy Policy     Delivery/Refund Policy     Terms of Service    Contact Zone4